sensor_id;sensor_type;location;lat;lon;timestamp;pressure;altitude;pressure_sealevel;temperature;humidity
36454;BME280;22478;51.740;-1.314;2023-02-11T00:01:26;102282.10;;;0.80;100.00
36454;BME280;22478;51.740;-1.314;2023-02-11T00:03:55;102282.12;;;1.62;100.00
36454;BME280;22478;51.740;-1.314;2023-02-11T00:06:24;102285.30;;;1.15;100.00
36454;BME280;22478;51.740;-1.314;2023-02-11T00:08:51;102280.70;;;2.81;100.00
36454;BME280;22478;51.740;-1.314;2023-02-11T00:11:21;102283.72;;;2.96;100.00
36454;BME280;22478;51.740;-1.314;2023-02-11T00:13:48;102290.83;;;3.33;100.00
36454;BME280;22478;51.740;-1.314;2023-02-11T00:16:16;102305.88;;;-0.21;100.00
36454;BME280;22478;51.740;-1.314;2023-02-11T00:18:45;102299.43;;;1.07;100.00
36454;BME280;22478;51.740;-1.314;2023-02-11T00:21:14;102298.52;;;1.73;100.00
36454;BME280;22478;51.740;-1.314;2023-02-11T00:23:42;102293.82;;;1.84;100.00
36454;BME280;22478;51.740;-1.314;2023-02-11T00:26:12;102296.17;;;1.58;100.00
36454;BME280;22478;51.740;-1.314;2023-02-11T00:28:39;102295.42;;;1.29;100.00
36454;BME280;22478;51.740;-1.314;2023-02-11T00:31:06;102284.68;;;3.01;100.00
36454;BME280;22478;51.740;-1.314;2023-02-11T00:33:34;102289.04;;;1.91;100.00
36454;BME280;22478;51.740;-1.314;2023-02-11T00:36:03;102286.13;;;1.32;100.00
36454;BME280;22478;51.740;-1.314;2023-02-11T00:38:30;102287.69;;;1.10;100.00
36454;BME280;22478;51.740;-1.314;2023-02-11T00:40:57;102283.70;;;3.09;100.00
36454;BME280;22478;51.740;-1.314;2023-02-11T00:43:26;102281.62;;;3.46;100.00
36454;BME280;22478;51.740;-1.314;2023-02-11T00:45:53;102291.37;;;1.66;100.00
36454;BME280;22478;51.740;-1.314;2023-02-11T00:48:20;102290.88;;;0.75;100.00
36454;BME280;22478;51.740;-1.314;2023-02-11T00:50:47;102281.95;;;1.92;100.00
36454;BME280;22478;51.740;-1.314;2023-02-11T00:53:14;102276.40;;;3.12;100.00
36454;BME280;22478;51.740;-1.314;2023-02-11T00:55:42;102277.52;;;1.93;100.00
36454;BME280;22478;51.740;-1.314;2023-02-11T00:58:09;102271.72;;;3.68;100.00
36454;BME280;22478;51.740;-1.314;2023-02-11T01:00:36;102278.61;;;3.14;100.00
36454;BME280;22478;51.740;-1.314;2023-02-11T01:03:04;102277.04;;;4.55;100.00
36454;BME280;22478;51.740;-1.314;2023-02-11T01:05:32;102274.46;;;3.71;100.00
36454;BME280;22478;51.740;-1.314;2023-02-11T01:08:00;102268.95;;;4.48;100.00
36454;BME280;22478;51.740;-1.314;2023-02-11T01:10:27;102263.00;;;3.89;100.00
36454;BME280;22478;51.740;-1.314;2023-02-11T01:12:54;102262.50;;;4.90;100.00
36454;BME280;22478;51.740;-1.314;2023-02-11T01:15:22;102271.81;;;2.28;100.00
36454;BME280;22478;51.740;-1.314;2023-02-11T01:17:49;102267.98;;;1.66;100.00
36454;BME280;22478;51.740;-1.314;2023-02-11T01:20:20;102260.05;;;4.15;100.00
36454;BME280;22478;51.740;-1.314;2023-02-11T01:22:48;102254.42;;;4.13;100.00
36454;BME280;22478;51.740;-1.314;2023-02-11T01:25:15;102256.77;;;1.47;100.00
36454;BME280;22478;51.740;-1.314;2023-02-11T01:27:42;102254.87;;;0.74;100.00
36454;BME280;22478;51.740;-1.314;2023-02-11T01:30:12;102248.83;;;1.30;100.00
36454;BME280;22478;51.740;-1.314;2023-02-11T01:32:39;102249.12;;;0.12;100.00
36454;BME280;22478;51.740;-1.314;2023-02-11T01:35:07;102251.56;;;1.16;100.00
36454;BME280;22478;51.740;-1.314;2023-02-11T01:37:35;102254.83;;;1.18;100.00
36454;BME280;22478;51.740;-1.314;2023-02-11T01:40:06;102258.60;;;2.30;100.00
36454;BME280;22478;51.740;-1.314;2023-02-11T01:42:33;102253.01;;;4.17;100.00
36454;BME280;22478;51.740;-1.314;2023-02-11T01:45:48;102249.07;;;4.70;100.00
36454;BME280;22478;51.740;-1.314;2023-02-11T01:48:21;102255.86;;;1.86;100.00
36454;BME280;22478;51.740;-1.314;2023-02-11T01:50:52;102249.26;;;5.10;100.00
36454;BME280;22478;51.740;-1.314;2023-02-11T01:53:21;102246.66;;;4.90;100.00
36454;BME280;22478;51.740;-1.314;2023-02-11T01:55:50;102244.07;;;5.27;100.00
36454;BME280;22478;51.740;-1.314;2023-02-11T01:58:18;102246.15;;;2.10;100.00
36454;BME280;22478;51.740;-1.314;2023-02-11T02:00:45;102233.56;;;4.25;100.00
36454;BME280;22478;51.740;-1.314;2023-02-11T02:03:15;102237.57;;;3.85;100.00
36454;BME280;22478;51.740;-1.314;2023-02-11T02:05:47;102227.52;;;3.09;100.00
36454;BME280;22478;51.740;-1.314;2023-02-11T02:08:22;102220.73;;;4.44;100.00
36454;BME280;22478;51.740;-1.314;2023-02-11T02:10:52;102220.88;;;1.98;100.00
36454;BME280;22478;51.740;-1.314;2023-02-11T02:13:20;102224.69;;;1.61;100.00
36454;BME280;22478;51.740;-1.314;2023-02-11T02:15:49;102223.14;;;2.33;100.00
36454;BME280;22478;51.740;-1.314;2023-02-11T02:18:32;102224.75;;;2.08;100.00
36454;BME280;22478;51.740;-1.314;2023-02-11T02:23:24;102216.98;;;2.70;100.00
36454;BME280;22478;51.740;-1.314;2023-02-11T02:26:25;102220.28;;;0.69;100.00
36454;BME280;22478;51.740;-1.314;2023-02-11T02:29:15;102216.09;;;2.44;100.00
36454;BME280;22478;51.740;-1.314;2023-02-11T02:31:58;102226.39;;;0.65;100.00
36454;BME280;22478;51.740;-1.314;2023-02-11T02:34:29;102231.50;;;-0.51;100.00
36454;BME280;22478;51.740;-1.314;2023-02-11T02:37:07;102236.24;;;-0.15;100.00
36454;BME280;22478;51.740;-1.314;2023-02-11T02:39:36;102232.58;;;0.04;100.00
36454;BME280;22478;51.740;-1.314;2023-02-11T02:42:04;102241.29;;;-0.84;100.00
36454;BME280;22478;51.740;-1.314;2023-02-11T02:44:33;102240.06;;;0.54;100.00
36454;BME280;22478;51.740;-1.314;2023-02-11T02:47:00;102249.32;;;-1.35;100.00
36454;BME280;22478;51.740;-1.314;2023-02-11T02:49:27;102238.58;;;0.07;100.00
36454;BME280;22478;51.740;-1.314;2023-02-11T02:52:05;102244.50;;;-0.59;100.00
36454;BME280;22478;51.740;-1.314;2023-02-11T02:55:21;102230.85;;;2.75;100.00
36454;BME280;22478;51.740;-1.314;2023-02-11T02:58:06;102234.79;;;0.82;100.00
36454;BME280;22478;51.740;-1.314;2023-02-11T03:00:46;102236.50;;;1.03;100.00
36454;BME280;22478;51.740;-1.314;2023-02-11T03:03:28;102233.37;;;0.33;100.00
36454;BME280;22478;51.740;-1.314;2023-02-11T03:06:03;102235.74;;;0.83;100.00
36454;BME280;22478;51.740;-1.314;2023-02-11T03:08:37;102231.21;;;0.60;100.00
36454;BME280;22478;51.740;-1.314;2023-02-11T03:11:07;102224.78;;;3.71;100.00
36454;BME280;22478;51.740;-1.314;2023-02-11T03:13:37;102224.10;;;2.46;100.00
36454;BME280;22478;51.740;-1.314;2023-02-11T03:16:10;102234.92;;;1.63;100.00
36454;BME280;22478;51.740;-1.314;2023-02-11T03:18:41;102236.29;;;0.57;100.00
36454;BME280;22478;51.740;-1.314;2023-02-11T03:21:11;102232.55;;;1.18;100.00
36454;BME280;22478;51.740;-1.314;2023-02-11T03:23:43;102219.99;;;2.30;100.00
36454;BME280;22478;51.740;-1.314;2023-02-11T03:26:20;102222.58;;;2.35;100.00
36454;BME280;22478;51.740;-1.314;2023-02-11T03:28:51;102223.08;;;2.98;100.00
36454;BME280;22478;51.740;-1.314;2023-02-11T03:31:27;102219.23;;;3.80;100.00
36454;BME280;22478;51.740;-1.314;2023-02-11T03:34:02;102217.87;;;3.32;100.00
36454;BME280;22478;51.740;-1.314;2023-02-11T03:36:37;102224.05;;;1.56;100.00
36454;BME280;22478;51.740;-1.314;2023-02-11T03:39:06;102212.05;;;1.58;100.00
36454;BME280;22478;51.740;-1.314;2023-02-11T03:41:35;102207.96;;;1.60;100.00
36454;BME280;22478;51.740;-1.314;2023-02-11T03:44:03;102202.57;;;0.54;100.00
36454;BME280;22478;51.740;-1.314;2023-02-11T03:46:37;102200.94;;;1.76;100.00
36454;BME280;22478;51.740;-1.314;2023-02-11T03:49:08;102202.58;;;0.63;100.00
36454;BME280;22478;51.740;-1.314;2023-02-11T03:51:38;102199.04;;;1.40;100.00
36454;BME280;22478;51.740;-1.314;2023-02-11T03:54:10;102201.20;;;1.27;100.00
36454;BME280;22478;51.740;-1.314;2023-02-11T03:56:42;102198.98;;;1.68;100.00
36454;BME280;22478;51.740;-1.314;2023-02-11T03:59:13;102201.84;;;0.89;100.00
36454;BME280;22478;51.740;-1.314;2023-02-11T04:01:40;102204.29;;;0.04;100.00
36454;BME280;22478;51.740;-1.314;2023-02-11T04:04:07;102199.45;;;1.16;100.00
36454;BME280;22478;51.740;-1.314;2023-02-11T04:06:35;102205.79;;;0.30;100.00
36454;BME280;22478;51.740;-1.314;2023-02-11T04:09:02;102212.14;;;1.09;100.00
36454;BME280;22478;51.740;-1.314;2023-02-11T04:11:29;102207.18;;;2.38;100.00
36454;BME280;22478;51.740;-1.314;2023-02-11T04:13:56;102208.81;;;2.17;100.00
36454;BME280;22478;51.740;-1.314;2023-02-11T04:16:23;102208.02;;;1.83;100.00
36454;BME280;22478;51.740;-1.314;2023-02-11T04:18:51;102211.27;;;0.47;100.00
36454;BME280;22478;51.740;-1.314;2023-02-11T04:21:18;102204.00;;;2.39;100.00
36454;BME280;22478;51.740;-1.314;2023-02-11T04:23:46;102204.90;;;2.03;100.00
36454;BME280;22478;51.740;-1.314;2023-02-11T04:26:13;102210.51;;;0.07;100.00
36454;BME280;22478;51.740;-1.314;2023-02-11T04:28:40;102217.15;;;0.23;100.00
36454;BME280;22478;51.740;-1.314;2023-02-11T04:31:08;102213.11;;;0.74;100.00
36454;BME280;22478;51.740;-1.314;2023-02-11T04:33:35;102217.09;;;0.58;100.00
36454;BME280;22478;51.740;-1.314;2023-02-11T04:36:03;102217.07;;;0.68;100.00
36454;BME280;22478;51.740;-1.314;2023-02-11T04:38:30;102221.21;;;-1.06;100.00
36454;BME280;22478;51.740;-1.314;2023-02-11T04:40:57;102216.05;;;0.80;100.00
36454;BME280;22478;51.740;-1.314;2023-02-11T04:43:24;102214.76;;;1.40;100.00
36454;BME280;22478;51.740;-1.314;2023-02-11T04:45:55;102221.00;;;1.77;100.00
36454;BME280;22478;51.740;-1.314;2023-02-11T04:48:22;102231.87;;;1.96;100.00
36454;BME280;22478;51.740;-1.314;2023-02-11T04:50:50;102237.96;;;2.31;100.00
36454;BME280;22478;51.740;-1.314;2023-02-11T04:53:17;102241.28;;;3.49;100.00
36454;BME280;22478;51.740;-1.314;2023-02-11T04:55:47;102242.66;;;2.86;100.00
36454;BME280;22478;51.740;-1.314;2023-02-11T04:58:14;102248.08;;;0.61;100.00
36454;BME280;22478;51.740;-1.314;2023-02-11T05:00:41;102253.64;;;-0.08;100.00
36454;BME280;22478;51.740;-1.314;2023-02-11T05:03:08;102257.59;;;0.42;100.00
36454;BME280;22478;51.740;-1.314;2023-02-11T05:05:37;102263.67;;;0.84;100.00
36454;BME280;22478;51.740;-1.314;2023-02-11T05:08:04;102258.87;;;1.73;100.00
36454;BME280;22478;51.740;-1.314;2023-02-11T05:10:32;102246.36;;;2.87;100.00
36454;BME280;22478;51.740;-1.314;2023-02-11T05:13:00;102242.90;;;0.96;100.00
36454;BME280;22478;51.740;-1.314;2023-02-11T05:15:28;102236.93;;;1.84;100.00
36454;BME280;22478;51.740;-1.314;2023-02-11T05:17:56;102234.32;;;2.99;100.00
36454;BME280;22478;51.740;-1.314;2023-02-11T05:20:23;102248.98;;;1.44;100.00
36454;BME280;22478;51.740;-1.314;2023-02-11T05:22:50;102251.07;;;3.30;100.00
36454;BME280;22478;51.740;-1.314;2023-02-11T05:25:18;102252.25;;;2.86;100.00
36454;BME280;22478;51.740;-1.314;2023-02-11T05:27:45;102251.96;;;3.94;100.00
36454;BME280;22478;51.740;-1.314;2023-02-11T05:30:12;102257.02;;;2.28;100.00
36454;BME280;22478;51.740;-1.314;2023-02-11T05:32:40;102248.80;;;4.07;100.00
36454;BME280;22478;51.740;-1.314;2023-02-11T05:35:07;102253.38;;;2.95;100.00
36454;BME280;22478;51.740;-1.314;2023-02-11T05:37:34;102253.83;;;3.10;100.00
36454;BME280;22478;51.740;-1.314;2023-02-11T05:40:02;102255.55;;;4.54;100.00
36454;BME280;22478;51.740;-1.314;2023-02-11T05:42:29;102257.67;;;3.18;100.00
36454;BME280;22478;51.740;-1.314;2023-02-11T05:44:57;102261.82;;;3.08;100.00
36454;BME280;22478;51.740;-1.314;2023-02-11T05:47:24;102257.43;;;3.81;100.00
36454;BME280;22478;51.740;-1.314;2023-02-11T05:49:51;102261.18;;;3.64;100.00
36454;BME280;22478;51.740;-1.314;2023-02-11T05:52:19;102253.98;;;5.51;100.00
36454;BME280;22478;51.740;-1.314;2023-02-11T05:54:47;102256.46;;;5.81;100.00
36454;BME280;22478;51.740;-1.314;2023-02-11T05:57:15;102263.24;;;4.75;100.00
36454;BME280;22478;51.740;-1.314;2023-02-11T05:59:42;102259.22;;;6.48;100.00
36454;BME280;22478;51.740;-1.314;2023-02-11T06:02:10;102270.40;;;3.10;100.00
36454;BME280;22478;51.740;-1.314;2023-02-11T06:04:37;102273.09;;;3.63;100.00
36454;BME280;22478;51.740;-1.314;2023-02-11T06:07:04;102273.09;;;3.01;100.00
36454;BME280;22478;51.740;-1.314;2023-02-11T06:09:32;102262.75;;;3.77;100.00
36454;BME280;22478;51.740;-1.314;2023-02-11T06:11:59;102264.20;;;4.46;100.00
36454;BME280;22478;51.740;-1.314;2023-02-11T06:14:26;102265.17;;;4.55;100.00
36454;BME280;22478;51.740;-1.314;2023-02-11T06:16:54;102267.98;;;4.86;100.00
36454;BME280;22478;51.740;-1.314;2023-02-11T06:19:22;102275.68;;;4.32;100.00
36454;BME280;22478;51.740;-1.314;2023-02-11T06:21:49;102270.27;;;4.14;100.00
36454;BME280;22478;51.740;-1.314;2023-02-11T06:24:16;102266.59;;;5.18;100.00
36454;BME280;22478;51.740;-1.314;2023-02-11T06:26:44;102271.32;;;5.02;100.00
36454;BME280;22478;51.740;-1.314;2023-02-11T06:29:11;102272.85;;;5.52;100.00
36454;BME280;22478;51.740;-1.314;2023-02-11T06:31:39;102268.99;;;5.34;100.00
36454;BME280;22478;51.740;-1.314;2023-02-11T06:34:07;102261.45;;;6.52;100.00
36454;BME280;22478;51.740;-1.314;2023-02-11T06:36:35;102258.05;;;6.11;100.00
36454;BME280;22478;51.740;-1.314;2023-02-11T06:39:02;102255.80;;;6.32;100.00
36454;BME280;22478;51.740;-1.314;2023-02-11T06:41:30;102258.58;;;5.19;100.00
36454;BME280;22478;51.740;-1.314;2023-02-11T06:43:58;102261.64;;;7.43;100.00
36454;BME280;22478;51.740;-1.314;2023-02-11T06:46:25;102264.33;;;7.59;100.00
36454;BME280;22478;51.740;-1.314;2023-02-11T06:48:53;102270.30;;;6.44;100.00
36454;BME280;22478;51.740;-1.314;2023-02-11T06:51:20;102269.92;;;5.63;100.00
36454;BME280;22478;51.740;-1.314;2023-02-11T06:53:47;102265.55;;;6.75;100.00
36454;BME280;22478;51.740;-1.314;2023-02-11T06:56:17;102259.91;;;5.11;100.00
36454;BME280;22478;51.740;-1.314;2023-02-11T06:58:46;102258.96;;;5.11;100.00
36454;BME280;22478;51.740;-1.314;2023-02-11T07:01:14;102259.93;;;4.56;100.00
36454;BME280;22478;51.740;-1.314;2023-02-11T07:03:43;102256.23;;;5.14;100.00
36454;BME280;22478;51.740;-1.314;2023-02-11T07:06:13;102263.98;;;4.16;100.00
36454;BME280;22478;51.740;-1.314;2023-02-11T07:08:41;102263.23;;;4.99;100.00
36454;BME280;22478;51.740;-1.314;2023-02-11T07:11:09;102271.14;;;3.98;100.00
36454;BME280;22478;51.740;-1.314;2023-02-11T07:13:36;102277.36;;;3.85;100.00
36454;BME280;22478;51.740;-1.314;2023-02-11T07:16:05;102274.04;;;5.94;100.00
36454;BME280;22478;51.740;-1.314;2023-02-11T07:18:32;102280.91;;;3.99;100.00
36454;BME280;22478;51.740;-1.314;2023-02-11T07:21:05;102281.29;;;5.45;100.00
36454;BME280;22478;51.740;-1.314;2023-02-11T07:23:34;102289.70;;;3.59;100.00
36454;BME280;22478;51.740;-1.314;2023-02-11T07:26:02;102293.80;;;2.68;100.00
36454;BME280;22478;51.740;-1.314;2023-02-11T07:28:30;102296.52;;;3.49;100.00
36454;BME280;22478;51.740;-1.314;2023-02-11T07:30:57;102295.53;;;4.46;100.00
36454;BME280;22478;51.740;-1.314;2023-02-11T07:33:24;102304.28;;;1.83;100.00
36454;BME280;22478;51.740;-1.314;2023-02-11T07:35:52;102303.39;;;3.39;100.00
36454;BME280;22478;51.740;-1.314;2023-02-11T07:38:19;102302.98;;;3.01;100.00
36454;BME280;22478;51.740;-1.314;2023-02-11T07:40:47;102302.53;;;2.56;100.00
36454;BME280;22478;51.740;-1.314;2023-02-11T07:43:14;102304.17;;;2.93;100.00
36454;BME280;22478;51.740;-1.314;2023-02-11T07:45:41;102299.85;;;6.49;100.00
36454;BME280;22478;51.740;-1.314;2023-02-11T07:48:09;102308.15;;;6.47;100.00
36454;BME280;22478;51.740;-1.314;2023-02-11T07:50:36;102309.34;;;7.36;100.00
36454;BME280;22478;51.740;-1.314;2023-02-11T07:53:03;102302.16;;;7.63;100.00
36454;BME280;22478;51.740;-1.314;2023-02-11T07:55:30;102304.28;;;6.64;100.00
36454;BME280;22478;51.740;-1.314;2023-02-11T07:57:59;102306.43;;;6.93;100.00
36454;BME280;22478;51.740;-1.314;2023-02-11T08:00:26;102310.40;;;6.65;100.00
36454;BME280;22478;51.740;-1.314;2023-02-11T08:02:59;102307.63;;;7.02;100.00
36454;BME280;22478;51.740;-1.314;2023-02-11T08:05:31;102311.33;;;6.24;100.00
36454;BME280;22478;51.740;-1.314;2023-02-11T08:07:58;102313.75;;;6.32;100.00
36454;BME280;22478;51.740;-1.314;2023-02-11T08:10:26;102316.92;;;5.99;100.00
36454;BME280;22478;51.740;-1.314;2023-02-11T08:12:53;102324.47;;;5.65;100.00
36454;BME280;22478;51.740;-1.314;2023-02-11T08:15:20;102325.33;;;6.90;100.00
36454;BME280;22478;51.740;-1.314;2023-02-11T08:17:48;102327.72;;;6.71;100.00
36454;BME280;22478;51.740;-1.314;2023-02-11T08:20:15;102330.99;;;4.76;100.00
36454;BME280;22478;51.740;-1.314;2023-02-11T08:22:43;102331.33;;;4.47;100.00
36454;BME280;22478;51.740;-1.314;2023-02-11T08:25:10;102325.44;;;5.04;100.00
36454;BME280;22478;51.740;-1.314;2023-02-11T08:27:37;102324.79;;;5.08;100.00
36454;BME280;22478;51.740;-1.314;2023-02-11T08:30:05;102323.74;;;5.96;100.00
36454;BME280;22478;51.740;-1.314;2023-02-11T08:32:34;102321.67;;;5.43;100.00
36454;BME280;22478;51.740;-1.314;2023-02-11T08:35:01;102327.38;;;3.63;100.00
36454;BME280;22478;51.740;-1.314;2023-02-11T08:37:28;102317.42;;;4.76;100.00
36454;BME280;22478;51.740;-1.314;2023-02-11T08:39:55;102319.27;;;4.93;100.00
36454;BME280;22478;51.740;-1.314;2023-02-11T08:42:23;102317.01;;;5.78;100.00
36454;BME280;22478;51.740;-1.314;2023-02-11T08:44:50;102317.65;;;4.48;100.00
36454;BME280;22478;51.740;-1.314;2023-02-11T08:47:17;102325.59;;;3.77;100.00
36454;BME280;22478;51.740;-1.314;2023-02-11T08:49:45;102327.80;;;3.58;100.00
36454;BME280;22478;51.740;-1.314;2023-02-11T08:52:12;102329.25;;;3.06;100.00
36454;BME280;22478;51.740;-1.314;2023-02-11T08:54:39;102333.83;;;3.20;100.00
36454;BME280;22478;51.740;-1.314;2023-02-11T08:57:07;102330.87;;;3.91;100.00
36454;BME280;22478;51.740;-1.314;2023-02-11T08:59:34;102338.38;;;4.66;100.00
36454;BME280;22478;51.740;-1.314;2023-02-11T09:02:01;102340.31;;;4.13;100.00
36454;BME280;22478;51.740;-1.314;2023-02-11T09:04:28;102345.27;;;3.19;100.00
36454;BME280;22478;51.740;-1.314;2023-02-11T09:06:56;102345.19;;;2.94;100.00
36454;BME280;22478;51.740;-1.314;2023-02-11T09:09:23;102342.18;;;2.09;100.00
36454;BME280;22478;51.740;-1.314;2023-02-11T09:11:51;102345.54;;;2.51;100.00
36454;BME280;22478;51.740;-1.314;2023-02-11T09:14:21;102347.93;;;2.89;100.00
36454;BME280;22478;51.740;-1.314;2023-02-11T09:16:49;102353.90;;;1.40;100.00
36454;BME280;22478;51.740;-1.314;2023-02-11T09:19:17;102356.80;;;4.26;100.00
36454;BME280;22478;51.740;-1.314;2023-02-11T09:21:45;102354.91;;;5.94;100.00
36454;BME280;22478;51.740;-1.314;2023-02-11T09:24:13;102363.16;;;4.83;100.00
36454;BME280;22478;51.740;-1.314;2023-02-11T09:26:41;102355.49;;;5.28;100.00
36454;BME280;22478;51.740;-1.314;2023-02-11T09:29:08;102352.89;;;3.20;100.00
36454;BME280;22478;51.740;-1.314;2023-02-11T09:31:36;102353.10;;;1.73;100.00
36454;BME280;22478;51.740;-1.314;2023-02-11T09:34:04;102353.85;;;0.62;100.00
36454;BME280;22478;51.740;-1.314;2023-02-11T09:36:34;102350.94;;;2.26;100.00
36454;BME280;22478;51.740;-1.314;2023-02-11T09:39:08;102350.53;;;0.88;100.00
36454;BME280;22478;51.740;-1.314;2023-02-11T09:42:45;102338.81;;;2.64;100.00
36454;BME280;22478;51.740;-1.314;2023-02-11T09:45:18;102348.90;;;0.95;100.00
36454;BME280;22478;51.740;-1.314;2023-02-11T09:47:50;102349.91;;;2.93;100.00
36454;BME280;22478;51.740;-1.314;2023-02-11T09:50:22;102352.79;;;2.90;100.00
36454;BME280;22478;51.740;-1.314;2023-02-11T09:52:56;102361.89;;;1.85;100.00
36454;BME280;22478;51.740;-1.314;2023-02-11T09:55:32;102357.81;;;3.29;100.00
36454;BME280;22478;51.740;-1.314;2023-02-11T09:58:02;102362.00;;;2.41;100.00
36454;BME280;22478;51.740;-1.314;2023-02-11T10:00:36;102369.67;;;0.74;100.00
36454;BME280;22478;51.740;-1.314;2023-02-11T10:04:30;102362.05;;;2.27;100.00
36454;BME280;22478;51.740;-1.314;2023-02-11T10:07:08;102365.59;;;0.70;100.00
36454;BME280;22478;51.740;-1.314;2023-02-11T10:09:52;102357.47;;;2.50;100.00
36454;BME280;22478;51.740;-1.314;2023-02-11T10:12:35;102354.33;;;3.45;100.00
36454;BME280;22478;51.740;-1.314;2023-02-11T10:15:15;102368.17;;;1.52;100.00
36454;BME280;22478;51.740;-1.314;2023-02-11T10:17:53;102365.88;;;2.86;100.00
36454;BME280;22478;51.740;-1.314;2023-02-11T10:20:32;102368.00;;;3.16;100.00
36454;BME280;22478;51.740;-1.314;2023-02-11T10:23:08;102371.01;;;1.70;100.00
36454;BME280;22478;51.740;-1.314;2023-02-11T10:25:37;102374.08;;;3.34;100.00
36454;BME280;22478;51.740;-1.314;2023-02-11T10:28:12;102380.92;;;5.92;100.00
36454;BME280;22478;51.740;-1.314;2023-02-11T10:30:43;102388.10;;;2.43;100.00
36454;BME280;22478;51.740;-1.314;2023-02-11T10:33:22;102381.86;;;3.50;100.00
36454;BME280;22478;51.740;-1.314;2023-02-11T10:35:50;102374.64;;;5.13;100.00
36454;BME280;22478;51.740;-1.314;2023-02-11T10:38:17;102376.72;;;3.17;100.00
36454;BME280;22478;51.740;-1.314;2023-02-11T10:40:45;102373.31;;;2.52;100.00
36454;BME280;22478;51.740;-1.314;2023-02-11T10:43:15;102365.88;;;2.82;100.00
36454;BME280;22478;51.740;-1.314;2023-02-11T10:45:44;102367.12;;;3.49;100.00
36454;BME280;22478;51.740;-1.314;2023-02-11T10:48:51;102369.58;;;3.22;100.00
36454;BME280;22478;51.740;-1.314;2023-02-11T10:51:21;102371.85;;;3.80;100.00
36454;BME280;22478;51.740;-1.314;2023-02-11T10:53:52;102365.63;;;4.15;100.00
36454;BME280;22478;51.740;-1.314;2023-02-11T10:56:36;102368.58;;;2.10;100.00
36454;BME280;22478;51.740;-1.314;2023-02-11T10:59:12;102363.79;;;3.01;100.00
36454;BME280;22478;51.740;-1.314;2023-02-11T11:01:44;102368.26;;;3.03;100.00
36454;BME280;22478;51.740;-1.314;2023-02-11T11:04:34;102369.48;;;4.57;100.00
36454;BME280;22478;51.740;-1.314;2023-02-11T11:07:17;102362.38;;;6.80;100.00
36454;BME280;22478;51.740;-1.314;2023-02-11T11:09:50;102361.44;;;4.75;100.00
36454;BME280;22478;51.740;-1.314;2023-02-11T11:12:29;102361.47;;;3.31;100.00
36454;BME280;22478;51.740;-1.314;2023-02-11T11:14:58;102357.28;;;2.26;100.00
36454;BME280;22478;51.740;-1.314;2023-02-11T11:17:26;102365.48;;;3.87;100.00
36454;BME280;22478;51.740;-1.314;2023-02-11T11:20:21;102368.18;;;2.91;100.00
36454;BME280;22478;51.740;-1.314;2023-02-11T11:22:51;102365.44;;;4.05;100.00
36454;BME280;22478;51.740;-1.314;2023-02-11T11:25:24;102372.44;;;3.48;100.00
36454;BME280;22478;51.740;-1.314;2023-02-11T11:27:55;102377.43;;;2.33;100.00
36454;BME280;22478;51.740;-1.314;2023-02-11T11:30:26;102381.84;;;1.90;100.00
36454;BME280;22478;51.740;-1.314;2023-02-11T11:32:58;102375.88;;;1.80;100.00
36454;BME280;22478;51.740;-1.314;2023-02-11T11:35:27;102371.45;;;4.89;100.00
36454;BME280;22478;51.740;-1.314;2023-02-11T11:37:58;102369.53;;;4.34;100.00
36454;BME280;22478;51.740;-1.314;2023-02-11T11:40:28;102369.50;;;3.54;100.00
36454;BME280;22478;51.740;-1.314;2023-02-11T11:43:12;102372.27;;;3.10;100.00
36454;BME280;22478;51.740;-1.314;2023-02-11T11:45:52;102362.85;;;4.03;100.00
36454;BME280;22478;51.740;-1.314;2023-02-11T11:48:23;102358.97;;;2.38;100.00
36454;BME280;22478;51.740;-1.314;2023-02-11T11:50:55;102357.74;;;2.88;100.00
36454;BME280;22478;51.740;-1.314;2023-02-11T11:53:30;102358.49;;;3.04;100.00
36454;BME280;22478;51.740;-1.314;2023-02-11T11:56:03;102357.97;;;4.51;100.00
36454;BME280;22478;51.740;-1.314;2023-02-11T11:58:32;102360.55;;;3.99;100.00
36454;BME280;22478;51.740;-1.314;2023-02-11T12:01:07;102365.88;;;3.82;100.00
36454;BME280;22478;51.740;-1.314;2023-02-11T12:04:55;102354.77;;;5.49;100.00
36454;BME280;22478;51.740;-1.314;2023-02-11T12:07:39;102349.14;;;5.36;100.00
36454;BME280;22478;51.740;-1.314;2023-02-11T12:10:31;102349.79;;;4.79;100.00
36454;BME280;22478;51.740;-1.314;2023-02-11T12:13:15;102360.21;;;4.01;100.00
36454;BME280;22478;51.740;-1.314;2023-02-11T12:15:56;102357.53;;;5.59;99.26
36454;BME280;22478;51.740;-1.314;2023-02-11T12:18:37;102360.77;;;4.66;100.00
36454;BME280;22478;51.740;-1.314;2023-02-11T12:21:18;102355.69;;;3.01;100.00
36454;BME280;22478;51.740;-1.314;2023-02-11T12:24:01;102353.24;;;3.75;100.00
36454;BME280;22478;51.740;-1.314;2023-02-11T12:26:37;102353.22;;;4.25;100.00
36454;BME280;22478;51.740;-1.314;2023-02-11T12:29:15;102347.21;;;5.96;100.00
36454;BME280;22478;51.740;-1.314;2023-02-11T12:31:56;102348.97;;;4.11;100.00
36454;BME280;22478;51.740;-1.314;2023-02-11T12:34:38;102346.91;;;4.65;100.00
36454;BME280;22478;51.740;-1.314;2023-02-11T12:37:16;102340.00;;;6.65;96.83
36454;BME280;22478;51.740;-1.314;2023-02-11T12:39:50;102338.59;;;8.04;87.53
36454;BME280;22478;51.740;-1.314;2023-02-11T12:42:31;102340.37;;;4.72;100.00
36454;BME280;22478;51.740;-1.314;2023-02-11T12:45:12;102333.14;;;4.57;100.00
36454;BME280;22478;51.740;-1.314;2023-02-11T12:47:54;102340.09;;;4.20;100.00
36454;BME280;22478;51.740;-1.314;2023-02-11T12:50:34;102334.32;;;5.04;100.00
36454;BME280;22478;51.740;-1.314;2023-02-11T12:53:18;102331.58;;;5.83;98.50
36454;BME280;22478;51.740;-1.314;2023-02-11T12:55:50;102331.23;;;5.49;96.67
36454;BME280;22478;51.740;-1.314;2023-02-11T12:58:22;102339.55;;;2.65;100.00
36454;BME280;22478;51.740;-1.314;2023-02-11T13:00:54;102338.48;;;4.22;100.00
36454;BME280;22478;51.740;-1.314;2023-02-11T13:03:25;102324.83;;;7.25;92.60
36454;BME280;22478;51.740;-1.314;2023-02-11T13:05:58;102323.46;;;6.62;97.78